Time;durP1;ratioP1;P1;durP2;ratioP2;P2;SDS_P1;SDS_P2;PMS_P1;PMS_P2;Temp;Humidity;BMP_temperature;BMP_pressure;BME280_temperature;BME280_humidity;BME280_pressure;Samples;Min_cycle;Max_cycle;Signal;HPM_P1;HPM_P2
2022/01/13 00:00:43;;;;;;;14.75;10.98;;;;;;;14.87;48.02;101042.72;4996682;28;20033;-86
2022/01/13 00:03:08;;;;;;;12.50;9.23;;;;;;;14.89;48.10;101038.31;4980553;28;20444;-86
2022/01/13 00:05:34;;;;;;;13.57;10.25;;;;;;;14.89;47.78;101038.31;4988776;28;20473;-83
2022/01/13 00:08:00;;;;;;;14.05;10.48;;;;;;;14.86;47.93;101035.72;4959255;28;20023;-85
2022/01/13 00:10:26;;;;;;;14.60;10.25;;;;;;;14.85;47.82;101033.97;4958377;28;20051;-85
2022/01/13 00:13:06;;;;;;;13.00;10.32;;;;;;;14.84;47.85;101034.88;4958157;28;20103;-85
2022/01/13 00:16:22;;;;;;;12.10;9.68;;;;;;;14.84;47.89;101035.75;4958320;28;20102;-85
2022/01/13 00:18:40;;;;;;;14.35;10.43;;;;;;;14.82;47.85;101039.28;4958003;28;20031;-86
2022/01/13 00:21:16;;;;;;;13.52;9.90;;;;;;;14.85;47.82;101044.47;4958619;28;20109;-86
2022/01/13 00:23:49;;;;;;;14.40;10.18;;;;;;;14.83;48.01;101035.75;4958624;28;20054;-86
2022/01/13 00:26:22;;;;;;;14.20;10.18;;;;;;;14.79;47.94;101039.28;4957878;29;20031;-85
2022/01/13 00:28:50;;;;;;;13.95;9.95;;;;;;;14.84;47.82;101042.75;4959784;28;20024;-86
2022/01/13 00:31:22;;;;;;;13.38;10.95;;;;;;;14.86;47.71;101030.44;4961576;28;20441;-85
2022/01/13 00:33:51;;;;;;;14.40;10.98;;;;;;;14.86;47.63;101031.34;4964470;29;20353;-84
2022/01/13 00:36:17;;;;;;;14.38;10.38;;;;;;;14.82;47.83;101023.50;4976178;28;20483;-84
2022/01/13 00:38:43;;;;;;;13.40;10.13;;;;;;;14.86;47.70;101025.19;4976374;28;20551;-83
2022/01/13 00:41:08;;;;;;;13.77;10.32;;;;;;;14.82;47.70;101026.13;4961065;29;20051;-85
2022/01/13 00:43:39;;;;;;;12.27;9.70;;;;;;;14.85;47.58;101012.94;4961031;28;20032;-84
2022/01/13 00:46:05;;;;;;;12.60;9.82;;;;;;;14.81;47.88;101021.78;4961531;28;20034;-83
2022/01/13 00:48:31;;;;;;;14.73;11.27;;;;;;;14.76;47.89;101017.41;4960889;29;20031;-83
2022/01/13 00:50:56;;;;;;;11.82;9.90;;;;;;;14.80;47.66;101025.25;4960951;29;20038;-85
2022/01/13 00:53:22;;;;;;;12.13;9.73;;;;;;;14.83;47.63;101020.88;4960917;28;20101;-83
2022/01/13 00:55:57;;;;;;;12.77;10.00;;;;;;;14.80;47.73;101025.25;4960806;28;20039;-85
2022/01/13 00:58:24;;;;;;;12.23;9.43;;;;;;;14.82;47.64;101024.34;4975847;28;20027;-82
2022/01/13 01:00:50;;;;;;;12.90;10.18;;;;;;;14.83;47.61;101034.00;4962204;29;20053;-85
2022/01/13 01:03:16;;;;;;;13.43;10.45;;;;;;;14.80;47.30;101039.28;4959742;28;20134;-86
2022/01/13 01:05:42;;;;;;;14.27;10.43;;;;;;;14.77;47.51;101037.56;4972681;28;20476;-83
2022/01/13 01:08:09;;;;;;;13.23;10.48;;;;;;;14.81;47.56;101041.03;4999235;28;20038;-83
2022/01/13 01:10:35;;;;;;;12.32;9.50;;;;;;;14.82;47.51;101036.66;4998238;28;20371;-85
2022/01/13 01:13:10;;;;;;;12.68;9.77;;;;;;;14.78;47.40;101043.69;4999050;28;20018;-83
2022/01/13 01:15:36;;;;;;;12.65;9.95;;;;;;;14.80;47.48;101049.78;4998229;28;20371;-83
2022/01/13 01:18:12;;;;;;;13.25;10.15;;;;;;;14.79;47.45;101050.69;4999347;28;20022;-84
2022/01/13 01:20:48;;;;;;;14.00;9.45;;;;;;;14.80;47.36;101051.53;4999446;28;20034;-85
2022/01/13 01:23:18;;;;;;;11.70;9.73;;;;;;;14.77;47.50;101048.06;4997830;28;20034;-84
2022/01/13 01:25:59;;;;;;;13.10;9.38;;;;;;;14.68;47.76;101049.88;4999292;28;20364;-85
2022/01/13 01:28:34;;;;;;;14.45;9.85;;;;;;;14.73;47.61;101054.19;5001041;28;20041;-85
2022/01/13 01:31:00;;;;;;;12.55;9.43;;;;;;;14.76;47.22;101055.97;4981930;28;20049;-86
2022/01/13 01:33:25;;;;;;;12.30;8.50;;;;;;;14.71;47.42;101053.34;4999452;28;20337;-84
2022/01/13 01:35:54;;;;;;;12.60;9.10;;;;;;;14.76;47.47;101055.97;4999039;28;20453;-85
2022/01/13 01:38:20;;;;;;;12.60;9.00;;;;;;;14.72;47.43;101060.34;4997942;28;20441;-85
2022/01/13 01:40:46;;;;;;;11.07;8.32;;;;;;;14.74;47.66;101066.50;4981716;28;20026;-84
2022/01/13 01:43:11;;;;;;;12.93;9.98;;;;;;;14.75;47.38;101063.00;4999961;28;20475;-84
2022/01/13 01:45:44;;;;;;;12.68;8.93;;;;;;;14.74;47.42;101057.72;4980787;28;20118;-84
2022/01/13 01:48:10;;;;;;;13.65;9.95;;;;;;;14.71;47.66;101058.59;5000654;28;20026;-84
2022/01/13 01:50:38;;;;;;;10.80;8.40;;;;;;;14.67;47.69;101054.25;4998335;28;20026;-84
2022/01/13 01:53:04;;;;;;;10.95;8.82;;;;;;;14.72;47.56;101065.59;4997365;28;20022;-85
2022/01/13 01:55:30;;;;;;;10.85;8.80;;;;;;;14.75;47.59;101069.97;4997074;28;20100;-83
2022/01/13 01:57:56;;;;;;;12.60;9.48;;;;;;;14.69;47.44;101060.38;4997829;28;20026;-83
2022/01/13 02:00:27;;;;;;;11.70;9.13;;;;;;;14.71;47.55;101074.38;4997860;28;20029;-85
2022/01/13 02:02:55;;;;;;;10.85;7.88;;;;;;;14.69;47.64;101068.28;4998221;28;20092;-85
2022/01/13 02:05:21;;;;;;;10.45;8.30;;;;;;;14.68;47.62;101066.50;4996642;28;20045;-86
2022/01/13 02:07:47;;;;;;;12.18;8.90;;;;;;;14.68;47.59;101069.13;4998197;28;20030;-86
2022/01/13 02:10:14;;;;;;;12.00;8.50;;;;;;;14.73;47.49;101066.47;4998237;28;20022;-85
2022/01/13 02:12:45;;;;;;;11.25;8.52;;;;;;;14.69;47.39;101064.75;4999058;28;20498;-85
2022/01/13 02:17:39;;;;;;;11.95;8.77;;;;;;;14.68;47.66;101053.34;4998616;28;20030;-85
2022/01/13 02:20:08;;;;;;;10.70;7.63;;;;;;;14.71;47.61;101057.72;4997838;28;20136;-86
2022/01/13 02:22:34;;;;;;;11.32;8.68;;;;;;;14.67;47.69;101046.38;4997675;28;20134;-86
2022/01/13 02:24:59;;;;;;;11.48;8.25;;;;;;;14.69;47.48;101042.00;4998776;28;20097;-86
2022/01/13 02:27:25;;;;;;;9.27;7.25;;;;;;;14.71;47.50;101042.84;4998677;28;20437;-84
2022/01/13 02:29:51;;;;;;;9.70;7.90;;;;;;;14.77;47.36;101060.31;4998886;28;20030;-86
2022/01/13 02:32:18;;;;;;;10.50;8.60;;;;;;;14.74;47.34;101056.00;4999439;28;20026;-86
2022/01/13 02:34:43;;;;;;;11.13;7.90;;;;;;;14.68;47.63;101060.38;4998879;28;20105;-86
2022/01/13 02:37:09;;;;;;;9.85;7.40;;;;;;;14.69;47.50;101055.13;4981695;28;20077;-86
2022/01/13 02:39:36;;;;;;;12.05;8.38;;;;;;;14.68;47.44;101053.34;4981462;28;20034;-86
2022/01/13 02:42:05;;;;;;;10.60;8.15;;;;;;;14.68;47.27;101055.13;4981583;28;20030;-86
2022/01/13 02:44:31;;;;;;;10.98;8.32;;;;;;;14.70;47.35;101048.09;4997623;28;20118;-86
2022/01/13 02:49:32;;;;;;;10.82;8.55;;;;;;;14.66;47.54;101055.13;4998554;28;20066;-87
2022/01/13 02:51:57;;;;;;;10.20;8.10;;;;;;;14.70;47.38;101055.97;4980839;28;20030;-87
2022/01/13 02:54:23;;;;;;;10.32;8.30;;;;;;;14.70;47.43;101062.13;4982126;28;20026;-87
2022/01/13 02:56:49;;;;;;;11.02;8.07;;;;;;;14.71;47.29;101060.34;4999112;28;20409;-86
2022/01/13 02:59:14;;;;;;;12.27;8.75;;;;;;;14.68;47.34;101058.63;4980868;28;20026;-85
2022/01/13 03:01:40;;;;;;;10.07;8.10;;;;;;;14.69;47.28;101060.38;4997215;28;20041;-84
2022/01/13 03:04:08;;;;;;;10.68;7.68;;;;;;;14.63;47.34;101060.44;4999383;28;20038;-85
2022/01/13 03:06:38;;;;;;;10.07;7.55;;;;;;;14.64;47.26;101063.03;4978993;28;20484;-85
2022/01/13 03:09:05;;;;;;;10.05;8.18;;;;;;;14.65;47.34;101058.66;4996737;28;20490;-84
2022/01/13 03:11:36;;;;;;;11.18;8.23;;;;;;;14.67;47.20;101067.38;4997535;28;20113;-84
2022/01/13 03:14:04;;;;;;;9.95;7.72;;;;;;;14.65;47.33;101079.69;4996893;28;20372;-85
2022/01/13 03:16:30;;;;;;;10.70;8.57;;;;;;;14.65;47.22;101066.53;4997088;28;20038;-83
2022/01/13 03:18:56;;;;;;;9.80;7.72;;;;;;;14.63;47.45;101070.94;4996768;28;20505;-84
2022/01/13 03:21:22;;;;;;;10.48;8.43;;;;;;;14.62;47.40;101074.44;4995831;28;20375;-83
2022/01/13 03:23:48;;;;;;;11.45;8.45;;;;;;;14.66;47.14;101065.66;4979631;28;20440;-83
2022/01/13 03:26:13;;;;;;;10.63;8.13;;;;;;;14.63;47.28;101060.44;4995931;28;20092;-83
2022/01/13 03:28:54;;;;;;;11.77;7.70;;;;;;;14.62;47.32;101058.66;4996377;28;20030;-83
2022/01/13 03:31:23;;;;;;;9.63;7.25;;;;;;;14.66;47.19;101054.28;4996725;28;20357;-84
2022/01/13 03:33:51;;;;;;;9.82;7.75;;;;;;;14.63;47.17;101049.94;4997440;28;20033;-83
2022/01/13 03:36:17;;;;;;;9.93;7.65;;;;;;;14.59;47.26;101042.94;4996439;28;20031;-85
2022/01/13 03:38:43;;;;;;;9.90;7.70;;;;;;;14.63;47.05;101039.41;4996505;28;20045;-83
2022/01/13 03:41:09;;;;;;;11.07;8.38;;;;;;;14.68;47.17;101036.75;4996495;28;20034;-83
2022/01/13 03:43:36;;;;;;;11.13;8.50;;;;;;;14.66;47.23;101033.28;4979338;28;20042;-84
2022/01/13 03:46:05;;;;;;;10.07;8.05;;;;;;;14.59;47.21;101037.69;4996094;28;20341;-85
2022/01/13 03:48:31;;;;;;;10.77;8.02;;;;;;;14.66;47.23;101028.00;4995245;28;20026;-85
2022/01/13 03:50:57;;;;;;;9.93;7.65;;;;;;;14.61;47.41;101035.91;4996911;28;20025;-85
2022/01/13 03:53:28;;;;;;;11.23;7.95;;;;;;;14.65;47.16;101037.63;4996656;28;20037;-84
2022/01/13 03:56:27;;;;;;;10.25;7.78;;;;;;;14.68;47.17;101042.00;4995562;28;20026;-86
2022/01/13 03:59:35;;;;;;;10.82;8.20;;;;;;;14.61;47.21;101047.31;4978879;28;20037;-86
2022/01/13 04:02:14;;;;;;;11.02;8.32;;;;;;;14.68;47.19;101053.34;4995413;28;20053;-85
2022/01/13 04:04:46;;;;;;;10.95;8.15;;;;;;;14.67;47.18;101059.50;4994497;28;20038;-85
2022/01/13 04:07:24;;;;;;;10.90;8.18;;;;;;;14.67;46.96;101066.53;4995149;28;20054;-83
2022/01/13 04:09:50;;;;;;;10.85;8.07;;;;;;;14.72;46.99;101065.59;4996745;28;20034;-84
2022/01/13 04:12:19;;;;;;;11.55;8.57;;;;;;;14.65;47.05;101063.91;4999753;28;20049;-85
2022/01/13 04:14:48;;;;;;;10.48;8.30;;;;;;;14.68;46.85;101061.25;4996914;28;20160;-85
2022/01/13 04:17:17;;;;;;;11.00;8.45;;;;;;;14.61;47.14;101068.31;4996282;28;20053;-86
2022/01/13 04:19:43;;;;;;;11.43;8.52;;;;;;;14.61;46.99;101077.94;4996339;28;20026;-85
2022/01/13 04:22:10;;;;;;;11.25;7.80;;;;;;;14.62;46.89;101074.44;4996633;28;20382;-86
2022/01/13 04:24:38;;;;;;;10.68;8.13;;;;;;;14.62;46.57;101071.81;4997644;28;20512;-84
2022/01/13 04:27:04;;;;;;;11.10;8.82;;;;;;;14.61;46.79;101077.94;4995213;28;20026;-84
2022/01/13 04:29:35;;;;;;;10.35;8.18;;;;;;;14.58;46.69;101078.84;4994571;28;20030;-83
2022/01/13 04:32:02;;;;;;;10.23;8.40;;;;;;;14.54;46.71;101074.53;4996874;28;20440;-85
2022/01/13 04:34:28;;;;;;;11.75;8.48;;;;;;;14.56;46.39;101066.59;4978462;28;20029;-84
2022/01/13 04:37:00;;;;;;;10.50;8.40;;;;;;;14.57;46.67;101063.13;4995908;28;20034;-84
2022/01/13 04:39:31;;;;;;;10.63;7.90;;;;;;;14.51;46.83;101061.41;4978407;28;20045;-85
2022/01/13 04:41:57;;;;;;;9.93;7.60;;;;;;;14.49;46.85;101057.94;4994715;28;20027;-85
2022/01/13 04:44:25;;;;;;;10.52;8.00;;;;;;;14.49;46.76;101058.78;4994603;28;20452;-84
2022/01/13 04:46:55;;;;;;;9.45;7.15;;;;;;;14.55;46.94;101060.50;4995984;28;20030;-83
2022/01/13 04:49:21;;;;;;;10.40;7.47;;;;;;;14.59;46.75;101058.72;4996460;28;20105;-83
2022/01/13 04:51:49;;;;;;;9.35;7.30;;;;;;;14.59;46.76;101058.72;4995774;28;20040;-86
2022/01/13 04:54:15;;;;;;;9.43;6.95;;;;;;;14.54;46.83;101060.50;4981195;28;20018;-84
2022/01/13 04:57:04;;;;;;;8.98;6.85;;;;;;;14.53;46.94;101064.03;4996407;28;20030;-86
2022/01/13 04:59:26;;;;;;;9.88;7.07;;;;;;;14.59;46.92;101075.34;4996095;28;20066;-86
2022/01/13 05:01:52;;;;;;;8.23;6.57;;;;;;;14.54;46.97;101071.00;4996581;28;20042;-86
2022/01/13 05:04:17;;;;;;;8.50;6.90;;;;;;;14.57;46.73;101077.09;4997203;28;20030;-86
2022/01/13 05:06:43;;;;;;;9.18;7.00;;;;;;;14.52;46.83;101072.78;4996981;28;20050;-85
2022/01/13 05:09:08;;;;;;;8.77;6.70;;;;;;;14.53;46.98;101070.13;4995971;28;20026;-85
2022/01/13 05:11:34;;;;;;;9.00;6.88;;;;;;;14.56;46.99;101069.22;4997557;28;20138;-86
2022/01/13 05:13:59;;;;;;;8.75;6.80;;;;;;;14.54;46.86;101068.38;4996046;28;20368;-86
2022/01/13 05:16:33;;;;;;;8.57;6.55;;;;;;;14.58;46.81;101078.00;5000562;28;20026;-86
2022/01/13 05:21:45;;;;;;;7.25;5.80;;;;;;;14.55;46.92;101078.88;4999984;28;20049;-84
2022/01/13 05:24:11;;;;;;;7.85;6.20;;;;;;;14.49;46.82;101082.41;4982640;28;20035;-86
2022/01/13 05:26:38;;;;;;;8.32;6.50;;;;;;;14.50;46.64;101084.16;5000682;28;20456;-85
2022/01/13 05:29:04;;;;;;;8.32;6.43;;;;;;;14.54;46.84;101085.03;4985705;28;20084;-84
2022/01/13 05:31:29;;;;;;;8.77;6.43;;;;;;;14.57;46.78;101077.09;4998590;28;20113;-83
2022/01/13 05:33:55;;;;;;;8.25;6.57;;;;;;;14.54;46.90;101076.25;4997750;28;20057;-84
2022/01/13 05:36:21;;;;;;;9.52;6.78;;;;;;;14.56;46.80;101087.63;4981275;28;20041;-84
2022/01/13 05:38:46;;;;;;;9.27;7.03;;;;;;;14.57;46.80;101092.03;4981401;28;20409;-84
2022/01/13 05:41:12;;;;;;;8.50;6.78;;;;;;;14.57;46.84;101094.66;4998709;28;20069;-84
2022/01/13 05:43:38;;;;;;;8.07;6.22;;;;;;;14.56;46.47;101085.00;4999956;28;20026;-84
2022/01/13 05:46:04;;;;;;;8.43;6.60;;;;;;;14.53;46.62;101085.03;4997855;28;20026;-83
2022/01/13 05:48:31;;;;;;;7.65;5.60;;;;;;;14.53;46.65;101079.78;4980820;28;20041;-83
2022/01/13 05:50:56;;;;;;;8.13;6.28;;;;;;;14.53;46.85;101085.88;4998321;28;20061;-84
2022/01/13 05:53:22;;;;;;;7.85;6.03;;;;;;;14.52;46.51;101086.78;5002401;28;20026;-85
2022/01/13 05:55:48;;;;;;;7.25;6.07;;;;;;;14.53;46.47;101092.91;4998910;28;20026;-84
2022/01/13 05:58:13;;;;;;;8.15;6.47;;;;;;;14.51;46.61;101098.19;4998566;28;20026;-85
2022/01/13 06:00:39;;;;;;;7.90;5.82;;;;;;;14.49;46.57;101090.31;4997761;28;20037;-86
2022/01/13 06:03:05;;;;;;;7.60;5.80;;;;;;;14.55;46.53;101091.13;4997320;28;20026;-84
2022/01/13 06:05:31;;;;;;;8.40;6.15;;;;;;;14.55;46.45;101099.91;4997189;28;20452;-86
2022/01/13 06:07:57;;;;;;;6.93;5.53;;;;;;;14.50;46.60;101105.16;4997224;28;20151;-85
2022/01/13 06:10:23;;;;;;;7.22;5.85;;;;;;;14.54;46.75;101113.03;4981228;28;20476;-85
2022/01/13 06:12:51;;;;;;;7.95;5.65;;;;;;;14.53;46.36;101111.31;4999467;28;20440;-84
2022/01/13 06:15:19;;;;;;;6.97;5.57;;;;;;;14.50;46.22;101110.44;4998276;28;20423;-87
2022/01/13 06:17:46;;;;;;;6.80;5.18;;;;;;;14.53;46.27;101108.69;4999106;28;20106;-84
2022/01/13 06:20:13;;;;;;;7.05;5.40;;;;;;;14.52;46.36;101110.41;4980780;28;20045;-85
2022/01/13 06:22:41;;;;;;;7.25;5.60;;;;;;;14.50;46.31;101113.06;4997082;28;20101;-86
2022/01/13 06:25:09;;;;;;;7.97;6.00;;;;;;;14.51;46.47;101121.81;4997635;28;20026;-86
2022/01/13 06:27:35;;;;;;;8.27;6.22;;;;;;;14.53;46.26;101111.31;4980813;28;20094;-84
2022/01/13 06:30:00;;;;;;;6.65;5.13;;;;;;;14.48;46.29;101119.22;4980747;28;20076;-85
2022/01/13 06:32:26;;;;;;;7.43;5.63;;;;;;;14.49;46.35;101131.47;4997405;28;20035;-87
2022/01/13 06:34:52;;;;;;;7.60;5.45;;;;;;;14.46;46.21;101135.00;4997559;28;20027;-86
2022/01/13 06:37:19;;;;;;;7.03;5.03;;;;;;;14.49;46.17;101134.97;4998007;28;20425;-86
2022/01/13 06:39:45;;;;;;;7.82;6.20;;;;;;;14.48;46.15;101141.09;4997083;28;20093;-84
2022/01/13 06:42:11;;;;;;;6.93;5.07;;;;;;;14.45;46.10;101138.50;4998666;28;20034;-86
2022/01/13 06:44:38;;;;;;;7.60;5.82;;;;;;;14.40;46.33;101137.66;4980983;28;20033;-86
2022/01/13 06:47:04;;;;;;;7.10;5.47;;;;;;;14.45;46.12;101137.63;4997025;28;20095;-86
2022/01/13 06:49:30;;;;;;;7.40;5.15;;;;;;;14.41;46.23;101144.66;4997728;28;20037;-86
2022/01/13 06:51:56;;;;;;;6.35;5.07;;;;;;;14.42;46.30;101140.25;4998003;28;20026;-86
2022/01/13 06:54:21;;;;;;;6.00;4.35;;;;;;;14.43;46.29;101142.03;4997691;28;20404;-84
2022/01/13 06:56:47;;;;;;;6.38;4.68;;;;;;;14.45;46.18;101146.38;4997771;28;20030;-86
2022/01/13 06:59:13;;;;;;;7.03;5.05;;;;;;;14.42;46.44;101148.13;4998139;28;20058;-85
2022/01/13 07:01:40;;;;;;;6.90;4.90;;;;;;;14.48;46.22;101146.34;4999740;28;20435;-85
2022/01/13 07:04:09;;;;;;;6.97;4.72;;;;;;;14.47;46.19;101149.88;4980508;28;20057;-84
2022/01/13 07:06:36;;;;;;;6.78;4.88;;;;;;;14.38;46.39;101139.41;4997565;28;20558;-84
2022/01/13 07:09:03;;;;;;;6.85;5.07;;;;;;;14.36;46.41;101130.69;4980458;28;20030;-85
2022/01/13 07:11:28;;;;;;;6.63;4.70;;;;;;;14.41;46.29;101131.53;4998826;28;20031;-84
2022/01/13 07:13:54;;;;;;;7.28;4.70;;;;;;;14.39;46.56;101130.66;4980640;28;20104;-85
2022/01/13 07:16:21;;;;;;;6.70;4.70;;;;;;;14.36;46.47;101123.69;4996831;28;20062;-84
2022/01/13 07:18:46;;;;;;;7.00;4.85;;;;;;;14.39;46.50;101120.16;4980040;28;20037;-88
2022/01/13 07:21:12;;;;;;;6.65;5.10;;;;;;;14.40;46.44;101124.53;4979602;28;20030;-84
2022/01/13 07:23:38;;;;;;;6.68;5.18;;;;;;;14.39;46.40;101130.66;4995632;28;20022;-85
2022/01/13 07:26:04;;;;;;;6.63;5.00;;;;;;;14.40;46.40;101127.16;4997111;28;20030;-84
2022/01/13 07:28:30;;;;;;;6.13;4.40;;;;;;;14.39;46.49;101119.28;4997599;28;20057;-85
2022/01/13 07:30:57;;;;;;;5.80;4.47;;;;;;;14.42;46.45;101120.13;4997255;28;20026;-86
2022/01/13 07:33:23;;;;;;;7.00;4.93;;;;;;;14.43;46.36;101121.88;4980326;28;20022;-86
2022/01/13 07:35:49;;;;;;;6.68;5.15;;;;;;;14.39;46.43;101120.16;4996995;28;20180;-84
2022/01/13 07:38:15;;;;;;;6.78;4.78;;;;;;;14.42;46.73;101122.75;4997224;28;20471;-85
2022/01/13 07:40:40;;;;;;;5.95;4.25;;;;;;;14.43;46.69;101132.38;4980624;28;20448;-85
2022/01/13 07:43:06;;;;;;;6.50;4.63;;;;;;;14.45;46.97;101125.38;4996255;28;20089;-85
2022/01/13 07:45:31;;;;;;;6.75;4.50;;;;;;;14.49;46.86;101141.97;4997495;28;20475;-89
2022/01/13 07:47:57;;;;;;;6.75;5.30;;;;;;;14.48;46.72;101146.34;5000786;28;20053;-89
2022/01/13 07:50:23;;;;;;;6.38;4.78;;;;;;;14.43;46.88;101163.88;4996523;28;20030;-86
2022/01/13 07:52:48;;;;;;;7.07;5.07;;;;;;;14.44;46.76;101155.13;4997395;28;20030;-89
2022/01/13 07:55:15;;;;;;;6.45;4.60;;;;;;;14.44;46.78;101165.63;4997221;28;20034;-86
2022/01/13 07:57:41;;;;;;;5.95;4.72;;;;;;;14.48;46.64;101162.13;4998930;28;20030;-85
2022/01/13 08:00:09;;;;;;;7.72;4.72;;;;;;;14.46;46.64;101163.88;4995211;28;20122;-84
2022/01/13 08:02:35;;;;;;;6.70;4.70;;;;;;;14.46;46.73;101169.13;4996205;28;20063;-85
2022/01/13 08:05:00;;;;;;;6.72;4.63;;;;;;;14.44;46.76;101164.78;4995958;28;20030;-87
2022/01/13 08:07:26;;;;;;;7.55;5.20;;;;;;;14.49;46.52;101158.59;4996695;28;20069;-86
2022/01/13 08:09:52;;;;;;;6.90;4.68;;;;;;;14.48;46.59;101167.38;4996025;28;20109;-84
2022/01/13 08:12:17;;;;;;;7.57;5.10;;;;;;;14.46;46.66;101163.00;4995033;28;20038;-83
2022/01/13 08:14:43;;;;;;;8.45;5.10;;;;;;;14.45;46.50;101170.03;4995951;28;20444;-84
2022/01/13 08:17:18;;;;;;;7.55;5.30;;;;;;;14.46;46.58;101168.25;4978713;28;20045;-85
2022/01/13 08:19:47;;;;;;;7.25;5.25;;;;;;;14.43;46.48;101169.16;4978397;28;20027;-85
2022/01/13 08:22:13;;;;;;;8.35;5.70;;;;;;;14.48;46.48;101167.38;4996024;28;20034;-83
2022/01/13 08:24:39;;;;;;;7.63;5.38;;;;;;;14.45;46.27;101177.91;4995674;28;20031;-84
2022/01/13 08:27:05;;;;;;;7.78;5.00;;;;;;;14.40;46.69;101184.94;4995668;28;20030;-85
2022/01/13 08:29:31;;;;;;;7.63;5.15;;;;;;;14.44;46.61;101176.13;4994869;28;20026;-85
2022/01/13 08:31:57;;;;;;;7.05;5.18;;;;;;;14.52;46.23;101175.25;4997734;28;20040;-83
2022/01/13 08:34:22;;;;;;;7.80;5.43;;;;;;;14.53;46.47;101182.22;4995324;28;20026;-83
2022/01/13 08:36:48;;;;;;;7.88;5.75;;;;;;;14.49;46.25;101174.34;4995768;28;20028;-83
2022/01/13 08:39:14;;;;;;;7.50;5.75;;;;;;;14.49;46.34;101179.59;4995671;28;20456;-83
2022/01/13 08:41:41;;;;;;;8.13;5.97;;;;;;;14.52;46.33;101177.88;4979084;28;20040;-84
2022/01/13 08:44:07;;;;;;;7.97;5.88;;;;;;;14.49;46.17;101179.59;4996597;28;20456;-85
2022/01/13 08:46:33;;;;;;;8.10;5.45;;;;;;;14.46;46.27;101184.91;4996086;28;20060;-85
2022/01/13 08:48:59;;;;;;;8.80;6.07;;;;;;;14.47;46.36;101196.25;4994812;28;20026;-85
2022/01/13 08:51:24;;;;;;;7.20;5.25;;;;;;;14.46;46.35;101191.91;4981672;28;20048;-84
2022/01/13 08:53:50;;;;;;;8.82;5.97;;;;;;;14.46;46.40;101184.91;4999896;28;20128;-84
2022/01/13 08:56:16;;;;;;;8.07;6.43;;;;;;;14.46;46.35;101194.53;4982852;28;20030;-84
2022/01/13 08:58:42;;;;;;;10.20;6.65;;;;;;;14.49;46.18;101205.03;4998742;28;20519;-84
2022/01/13 09:01:08;;;;;;;8.93;6.30;;;;;;;14.48;46.33;101204.13;4999509;28;20161;-85
2022/01/13 09:03:36;;;;;;;9.43;6.07;;;;;;;14.50;46.22;101201.50;4986343;28;20078;-86
2022/01/13 09:06:03;;;;;;;9.88;6.55;;;;;;;14.48;46.28;101198.88;4982302;28;20137;-85
2022/01/13 09:08:29;;;;;;;9.57;6.20;;;;;;;14.50;46.20;101202.38;5000084;28;20030;-83
2022/01/13 09:10:55;;;;;;;9.18;6.30;;;;;;;14.53;46.11;101195.38;5000385;28;20476;-85
2022/01/13 09:13:21;;;;;;;8.50;6.47;;;;;;;14.54;46.18;101199.72;4999225;28;20058;-84
2022/01/13 09:15:57;;;;;;;8.45;6.28;;;;;;;14.45;46.34;101201.56;5000235;28;20030;-86
2022/01/13 09:18:34;;;;;;;9.10;6.95;;;;;;;14.48;46.08;101204.13;5000273;28;20100;-83
2022/01/13 09:21:01;;;;;;;10.40;6.70;;;;;;;14.47;46.18;101201.50;4982780;28;20030;-85
2022/01/13 09:23:26;;;;;;;9.52;6.60;;;;;;;14.45;46.27;101204.19;4999602;28;20094;-85
2022/01/13 09:25:54;;;;;;;9.10;6.80;;;;;;;14.52;46.24;101198.88;5000293;28;20034;-86
2022/01/13 09:28:20;;;;;;;9.93;7.07;;;;;;;14.50;46.22;101199.75;4998902;28;20030;-84
2022/01/13 09:30:45;;;;;;;8.55;6.00;;;;;;;14.50;46.32;101207.63;5000542;28;20032;-86
2022/01/13 09:33:11;;;;;;;9.15;6.63;;;;;;;14.47;46.20;101207.66;4999492;28;20022;-84
2022/01/13 09:35:37;;;;;;;10.60;7.13;;;;;;;14.49;46.19;101203.25;5000033;28;20109;-85
2022/01/13 09:38:03;;;;;;;9.70;6.75;;;;;;;14.47;46.43;101207.66;4999691;28;20038;-85
2022/01/13 09:40:29;;;;;;;11.02;7.00;;;;;;;14.48;46.35;101204.13;4998321;28;20034;-85
2022/01/13 09:42:54;;;;;;;10.30;6.95;;;;;;;14.52;46.31;101201.50;4981985;28;20103;-85
2022/01/13 09:45:21;;;;;;;9.60;6.85;;;;;;;14.47;46.36;101188.38;4999346;28;20129;-83
2022/01/13 09:47:48;;;;;;;9.85;7.13;;;;;;;14.47;46.30;101202.41;5001582;28;20022;-86
2022/01/13 09:50:18;;;;;;;10.65;6.97;;;;;;;14.47;46.40;101197.16;4983986;28;20364;-85
2022/01/13 09:52:45;;;;;;;10.43;7.10;;;;;;;14.50;46.32;101202.38;5000483;28;20371;-84
2022/01/13 09:55:13;;;;;;;10.43;7.55;;;;;;;14.47;46.35;101194.53;4997916;28;20030;-84
2022/01/13 09:57:47;;;;;;;10.35;7.10;;;;;;;14.50;46.25;101202.38;4997421;28;20041;-84
2022/01/13 10:00:15;;;;;;;10.50;7.35;;;;;;;14.52;46.20;101201.50;4997327;28;20482;-85
2022/01/13 10:02:41;;;;;;;11.65;7.90;;;;;;;14.52;46.26;101209.38;4997278;28;20100;-85
2022/01/13 10:05:07;;;;;;;11.73;7.68;;;;;;;14.55;46.26;101214.63;4997754;28;20026;-84
2022/01/13 10:07:37;;;;;;;10.88;8.27;;;;;;;14.50;46.43;101218.13;4977807;28;20051;-84
2022/01/13 10:10:12;;;;;;;9.18;6.85;;;;;;;14.49;46.45;101226.91;4975619;28;20417;-86
2022/01/13 10:12:39;;;;;;;10.88;8.02;;;;;;;14.46;46.57;101231.28;4962818;28;20034;-86
2022/01/13 10:17:51;;;;;;;12.07;7.95;;;;;;;14.49;46.52;101219.00;4960595;28;20027;-84
2022/01/13 10:20:20;;;;;;;12.95;8.60;;;;;;;14.55;46.25;101214.63;4960329;28;20110;-82
2022/01/13 10:22:46;;;;;;;14.50;9.90;;;;;;;14.55;46.28;101215.50;4960591;28;20038;-84
2022/01/13 10:25:31;;;;;;;12.23;9.18;;;;;;;14.52;46.27;101217.28;4960905;29;20038;-86
2022/01/13 10:28:11;;;;;;;12.75;9.15;;;;;;;14.54;46.44;101224.25;4959840;28;20090;-83
2022/01/13 10:30:37;;;;;;;11.30;8.15;;;;;;;14.53;46.56;101213.75;4961521;29;20031;-83
2022/01/13 10:33:14;;;;;;;14.65;9.38;;;;;;;14.53;46.51;101205.88;4959805;29;20035;-83
2022/01/13 10:35:40;;;;;;;13.73;9.32;;;;;;;14.57;46.45;101202.34;4960469;28;20085;-85
2022/01/13 10:38:06;;;;;;;12.45;8.85;;;;;;;14.59;46.09;101200.59;4959815;28;20031;-85
2022/01/13 10:40:38;;;;;;;12.82;9.20;;;;;;;14.59;46.35;101197.97;4959716;28;20353;-83
2022/01/13 10:45:41;;;;;;;12.93;8.48;;;;;;;14.58;46.43;101206.72;4959414;29;20031;-84
2022/01/13 10:48:06;;;;;;;13.57;9.60;;;;;;;14.59;46.43;101216.34;4959752;28;20031;-85
2022/01/13 10:50:36;;;;;;;14.95;9.18;;;;;;;14.59;46.46;101216.34;4959404;29;20038;-85
2022/01/13 10:53:06;;;;;;;14.07;9.35;;;;;;;14.56;46.41;101197.97;4959781;28;20102;-84
2022/01/13 10:55:36;;;;;;;13.45;8.90;;;;;;;14.64;46.16;101199.66;4959003;28;20472;-85
2022/01/13 10:58:02;;;;;;;13.52;9.60;;;;;;;14.59;46.37;101200.59;4974644;28;20058;-84
2022/01/13 11:00:30;;;;;;;13.50;8.88;;;;;;;14.63;46.44;101197.06;4960232;28;20035;-84
2022/01/13 11:03:00;;;;;;;12.73;9.00;;;;;;;14.61;46.71;101188.28;4958221;28;20473;-83
2022/01/13 11:05:29;;;;;;;12.85;9.00;;;;;;;14.62;46.47;101192.66;4962474;28;20047;-83
2022/01/13 11:07:57;;;;;;;13.88;9.35;;;;;;;14.58;46.59;101193.59;4997568;28;20034;-86
2022/01/13 11:10:24;;;;;;;13.48;9.13;;;;;;;14.60;46.60;101191.81;4998109;28;20029;-85
2022/01/13 11:12:56;;;;;;;13.68;8.88;;;;;;;14.62;46.67;101195.28;4997666;28;20023;-85
2022/01/13 11:15:24;;;;;;;11.75;8.13;;;;;;;14.64;46.83;101188.28;4979236;28;20030;-83
2022/01/13 11:17:52;;;;;;;12.35;8.43;;;;;;;14.66;46.71;101189.16;4995602;28;20108;-85
2022/01/13 11:20:19;;;;;;;11.85;7.97;;;;;;;14.67;46.51;101175.13;4979896;28;20026;-84
2022/01/13 11:22:49;;;;;;;13.98;9.23;;;;;;;14.67;46.70;101180.38;4979472;28;20037;-84
2022/01/13 11:25:23;;;;;;;13.77;8.60;;;;;;;14.64;46.96;101176.00;4996630;28;20494;-85
2022/01/13 11:27:53;;;;;;;12.57;8.45;;;;;;;14.64;46.68;101178.63;4995440;28;20330;-86
2022/01/13 11:30:25;;;;;;;11.98;8.25;;;;;;;14.64;46.61;101175.16;4995985;28;20027;-85
2022/01/13 11:32:51;;;;;;;10.50;7.82;;;;;;;14.68;46.60;101168.97;4979301;28;20026;-84
2022/01/13 11:35:26;;;;;;;11.95;8.27;;;;;;;14.67;46.68;101167.22;4996921;28;20029;-83